createdAt,value
2023-07-17T00:00:14.201Z,21.92
2023-07-17T00:02:46.029Z,21.76
2023-07-17T00:05:18.030Z,21.76
2023-07-17T00:07:49.933Z,21.67
2023-07-17T00:10:21.751Z,21.63
2023-07-17T00:12:53.540Z,21.64
2023-07-17T00:15:25.399Z,21.60
2023-07-17T00:17:57.194Z,21.34
2023-07-17T00:20:29.044Z,21.29
2023-07-17T00:23:01.063Z,21.55
2023-07-17T00:25:32.906Z,21.41
2023-07-17T00:28:04.735Z,21.46
2023-07-17T00:30:36.592Z,21.23
2023-07-17T00:33:08.532Z,21.34
2023-07-17T00:35:40.344Z,20.88
2023-07-17T00:38:12.131Z,21.25
2023-07-17T00:40:44.314Z,21.28
2023-07-17T00:43:16.221Z,20.81
2023-07-17T00:45:48.915Z,21.07
2023-07-17T00:48:20.806Z,21.00
2023-07-17T00:50:52.932Z,20.91
2023-07-17T00:53:24.693Z,21.09
2023-07-17T00:55:56.580Z,20.97
2023-07-17T00:58:28.408Z,21.01
2023-07-17T01:01:00.272Z,20.78
2023-07-17T01:03:33.281Z,20.79
2023-07-17T01:06:05.791Z,20.77
2023-07-17T01:08:37.656Z,20.72
2023-07-17T01:11:10.264Z,20.81
2023-07-17T01:13:50.335Z,20.55
2023-07-17T01:16:22.106Z,20.77
2023-07-17T01:18:53.958Z,20.65
2023-07-17T01:21:32.581Z,20.80
2023-07-17T01:24:04.616Z,20.78
2023-07-17T01:26:36.380Z,20.59
2023-07-17T01:29:08.200Z,20.45
2023-07-17T01:31:41.440Z,20.73
2023-07-17T01:34:13.248Z,20.72
2023-07-17T01:36:45.133Z,20.64
2023-07-17T01:39:16.965Z,20.75
2023-07-17T01:41:48.841Z,20.38
2023-07-17T01:44:20.688Z,20.60
2023-07-17T01:46:52.491Z,20.35
2023-07-17T01:49:24.347Z,20.38
2023-07-17T01:51:56.186Z,20.51
2023-07-17T01:54:27.944Z,20.31
2023-07-17T01:56:59.743Z,20.41
2023-07-17T01:59:31.624Z,20.36
2023-07-17T02:02:04.444Z,20.44
2023-07-17T02:04:36.369Z,20.38
2023-07-17T02:07:08.160Z,20.25
2023-07-17T02:09:40.108Z,20.29
2023-07-17T02:12:11.888Z,19.85
2023-07-17T02:14:43.686Z,20.24
2023-07-17T02:17:15.506Z,20.07
2023-07-17T02:19:47.268Z,19.99
2023-07-17T02:22:19.039Z,20.12
2023-07-17T02:24:50.816Z,19.97
2023-07-17T02:27:22.738Z,19.92
2023-07-17T02:29:55.388Z,19.94
2023-07-17T02:32:29.708Z,19.89
2023-07-17T02:35:01.522Z,19.93
2023-07-17T02:37:33.598Z,19.76
2023-07-17T02:40:15.180Z,19.70
2023-07-17T02:42:46.981Z,19.75
2023-07-17T02:45:19.193Z,19.80
2023-07-17T02:47:51.196Z,19.76
2023-07-17T02:50:23.081Z,19.71
2023-07-17T02:52:54.965Z,19.71
2023-07-17T02:55:26.987Z,19.78
2023-07-17T02:57:58.837Z,19.84
2023-07-17T03:00:30.648Z,19.83
2023-07-17T03:03:07.098Z,19.90
2023-07-17T03:05:39.107Z,19.78
2023-07-17T03:08:11.539Z,19.55
2023-07-17T03:10:43.367Z,19.99
2023-07-17T03:13:15.232Z,19.91
2023-07-17T03:15:49.047Z,20.03
2023-07-17T03:18:20.858Z,19.95
2023-07-17T03:20:52.862Z,20.21
2023-07-17T03:23:24.666Z,20.07
2023-07-17T03:25:59.460Z,20.22
2023-07-17T03:28:31.501Z,20.22
2023-07-17T03:31:03.468Z,20.34
2023-07-17T03:33:35.652Z,20.41
2023-07-17T03:36:08.122Z,20.60
2023-07-17T03:38:39.883Z,20.67
2023-07-17T03:41:11.671Z,20.81
2023-07-17T03:43:43.448Z,20.89
2023-07-17T03:46:15.601Z,21.46
2023-07-17T03:48:47.386Z,21.36
2023-07-17T03:51:19.334Z,21.52
2023-07-17T03:53:54.307Z,21.59
2023-07-17T03:56:26.254Z,21.49
2023-07-17T03:58:58.035Z,21.55
2023-07-17T04:01:30.778Z,21.51
2023-07-17T04:04:02.667Z,21.45
2023-07-17T04:06:34.478Z,21.60
2023-07-17T04:09:06.262Z,21.58
2023-07-17T04:11:38.030Z,21.69
2023-07-17T04:14:10.331Z,21.68
2023-07-17T04:16:42.137Z,21.67
2023-07-17T04:19:14.061Z,21.55
2023-07-17T04:21:45.807Z,21.92
2023-07-17T04:24:17.665Z,21.87
2023-07-17T04:26:49.544Z,21.92
2023-07-17T04:29:24.712Z,22.04
2023-07-17T04:31:56.579Z,21.90
2023-07-17T04:34:30.191Z,22.02
2023-07-17T04:37:01.999Z,21.98
2023-07-17T04:39:34.167Z,22.27
2023-07-17T04:42:06.096Z,22.45
2023-07-17T04:44:37.880Z,22.50
2023-07-17T04:47:09.757Z,22.46
2023-07-17T04:49:41.668Z,22.47
2023-07-17T04:52:13.469Z,22.27
2023-07-17T04:54:45.217Z,22.67
2023-07-17T04:57:17.154Z,22.84
2023-07-17T04:59:48.929Z,22.96
2023-07-17T05:02:21.028Z,22.88
2023-07-17T05:04:52.885Z,23.18
2023-07-17T05:07:24.686Z,23.33
2023-07-17T05:09:56.518Z,23.46
2023-07-17T05:12:29.235Z,23.48
2023-07-17T05:15:01.068Z,23.48
2023-07-17T05:17:32.946Z,23.38
2023-07-17T05:20:08.059Z,22.92
2023-07-17T05:22:39.901Z,23.46
2023-07-17T05:25:11.737Z,23.12
2023-07-17T05:27:43.549Z,23.08
2023-07-17T05:30:15.545Z,23.11
2023-07-17T05:32:47.386Z,22.83
2023-07-17T05:35:19.463Z,23.03
2023-07-17T05:37:51.322Z,22.87
2023-07-17T05:40:23.212Z,22.84
2023-07-17T05:42:55.211Z,23.12
2023-07-17T05:45:26.980Z,23.11
2023-07-17T05:47:58.799Z,23.15
2023-07-17T05:50:30.601Z,23.27
2023-07-17T05:53:02.408Z,23.07
2023-07-17T05:55:34.175Z,23.36
2023-07-17T05:58:05.924Z,23.59
2023-07-17T06:00:37.729Z,24.22
2023-07-17T06:03:09.567Z,25.00
2023-07-17T06:05:41.465Z,25.31
2023-07-17T06:08:13.237Z,24.67
2023-07-17T06:10:45.076Z,25.09
2023-07-17T06:13:17.914Z,25.04
2023-07-17T06:15:49.729Z,25.00
2023-07-17T06:18:21.581Z,24.98
2023-07-17T06:20:53.397Z,25.15
2023-07-17T06:23:25.277Z,25.12
2023-07-17T06:25:57.486Z,25.16
2023-07-17T06:28:30.812Z,25.32
2023-07-17T06:31:02.612Z,25.33
2023-07-17T06:33:37.280Z,25.21
2023-07-17T06:36:09.212Z,25.63
2023-07-17T06:38:41.109Z,25.41
2023-07-17T06:41:12.871Z,25.76
2023-07-17T06:43:44.814Z,25.88
2023-07-17T06:46:18.245Z,25.99
2023-07-17T06:48:50.261Z,26.35
2023-07-17T06:51:22.052Z,26.58
2023-07-17T06:53:54.799Z,26.81
2023-07-17T06:56:26.582Z,26.92
2023-07-17T06:58:58.812Z,26.79
2023-07-17T07:01:30.611Z,26.64
2023-07-17T07:04:02.481Z,26.87
2023-07-17T07:06:34.360Z,27.36
2023-07-17T07:09:06.162Z,27.25
2023-07-17T07:11:37.974Z,27.44
2023-07-17T07:14:09.751Z,27.42
2023-07-17T07:16:41.601Z,27.37
2023-07-17T07:19:13.461Z,27.13
2023-07-17T07:21:45.335Z,27.12
2023-07-17T07:24:17.160Z,27.20
2023-07-17T07:26:49.046Z,27.45
2023-07-17T07:29:20.844Z,27.22
2023-07-17T07:31:52.858Z,27.38
2023-07-17T07:34:24.909Z,27.50
2023-07-17T07:36:56.692Z,27.41
2023-07-17T07:39:28.470Z,27.51
2023-07-17T07:42:00.338Z,27.15
2023-07-17T07:44:32.109Z,27.34
2023-07-17T07:47:03.967Z,27.27
2023-07-17T07:49:35.912Z,27.00
2023-07-17T07:52:08.251Z,26.96
2023-07-17T07:54:40.066Z,26.53
2023-07-17T07:57:12.078Z,26.71
2023-07-17T07:59:43.859Z,26.57
2023-07-17T08:02:15.796Z,26.37
2023-07-17T08:04:47.683Z,26.26
2023-07-17T08:07:19.498Z,25.95
2023-07-17T08:09:52.687Z,26.02
2023-07-17T08:12:24.550Z,25.95
2023-07-17T08:14:56.330Z,25.66
2023-07-17T08:17:28.165Z,25.46
2023-07-17T08:19:59.982Z,25.50
2023-07-17T08:22:31.776Z,25.42
2023-07-17T08:25:04.073Z,25.64
2023-07-17T08:27:35.895Z,25.60
2023-07-17T08:30:08.480Z,25.51
2023-07-17T08:32:40.395Z,25.53
2023-07-17T08:35:12.327Z,25.36
2023-07-17T08:37:44.124Z,25.29
2023-07-17T08:40:15.939Z,25.57
2023-07-17T08:42:51.292Z,25.79
2023-07-17T08:45:24.604Z,25.66
2023-07-17T08:47:56.814Z,25.87
2023-07-17T08:50:30.094Z,25.85
2023-07-17T08:53:02.141Z,25.84
2023-07-17T08:55:34.109Z,25.71
2023-07-17T08:58:06.209Z,25.98
2023-07-17T09:00:38.304Z,26.17
2023-07-17T09:03:10.208Z,25.94
2023-07-17T09:05:44.544Z,26.35
2023-07-17T09:08:16.541Z,26.28
2023-07-17T09:11:09.854Z,26.25
2023-07-17T09:13:44.174Z,26.15
2023-07-17T09:16:16.902Z,26.04
2023-07-17T09:18:50.231Z,26.01
2023-07-17T09:21:24.285Z,26.11
2023-07-17T09:23:57.978Z,26.44
2023-07-17T09:26:30.678Z,27.11
2023-07-17T09:29:02.552Z,27.55
2023-07-17T09:31:34.329Z,28.02
2023-07-17T09:34:14.612Z,28.15
2023-07-17T09:36:51.482Z,28.25
2023-07-17T09:39:23.782Z,28.59
2023-07-17T09:41:55.550Z,28.51
2023-07-17T09:44:28.431Z,28.59
2023-07-17T09:47:01.388Z,28.68
2023-07-17T09:49:33.284Z,29.07
2023-07-17T09:52:05.529Z,28.85
2023-07-17T09:54:39.952Z,28.74
2023-07-17T09:57:21.497Z,29.21
2023-07-17T09:59:55.988Z,29.14
2023-07-17T10:02:57.320Z,29.55
2023-07-17T10:05:30.006Z,28.49
2023-07-17T10:08:06.816Z,28.95
2023-07-17T10:10:39.049Z,29.04
2023-07-17T10:13:12.356Z,29.47
2023-07-17T10:15:47.080Z,29.52
2023-07-17T10:18:18.863Z,29.46
2023-07-17T10:20:55.446Z,29.76
2023-07-17T10:23:28.862Z,29.79
2023-07-17T10:26:09.489Z,29.70
2023-07-17T10:28:42.742Z,29.70
2023-07-17T10:31:20.844Z,29.67
2023-07-17T10:33:57.089Z,29.88
2023-07-17T10:36:44.381Z,30.02
2023-07-17T10:39:20.752Z,29.95
2023-07-17T10:41:52.732Z,29.81
2023-07-17T10:44:24.630Z,30.09
2023-07-17T10:46:56.576Z,30.04
2023-07-17T10:49:28.371Z,30.06
2023-07-17T10:52:00.139Z,30.41
2023-07-17T10:54:31.963Z,30.40
2023-07-17T10:57:04.456Z,30.00
2023-07-17T10:59:36.996Z,29.95
2023-07-17T11:02:08.908Z,29.94
2023-07-17T11:04:40.721Z,30.15
2023-07-17T11:07:13.211Z,30.11
2023-07-17T11:09:45.840Z,30.27
2023-07-17T11:12:20.377Z,30.35
2023-07-17T11:14:55.208Z,30.44
2023-07-17T11:17:27.147Z,30.19
2023-07-17T11:20:04.952Z,30.31
2023-07-17T11:22:38.192Z,29.99
2023-07-17T11:25:12.249Z,30.25
2023-07-17T11:27:44.414Z,30.69
2023-07-17T11:30:27.423Z,30.63
2023-07-17T11:32:59.313Z,30.79
2023-07-17T11:35:42.038Z,30.62
2023-07-17T11:38:17.090Z,30.63
2023-07-17T11:40:59.734Z,30.71
2023-07-17T11:43:38.983Z,30.58
2023-07-17T11:46:11.232Z,30.48
2023-07-17T11:48:46.033Z,30.13
2023-07-17T11:51:18.073Z,30.21
2023-07-17T11:53:57.341Z,30.40
2023-07-17T11:56:41.216Z,30.44
2023-07-17T11:59:25.718Z,30.28
2023-07-17T12:01:57.750Z,29.98
2023-07-17T12:04:33.755Z,29.92
2023-07-17T12:07:06.067Z,29.99
2023-07-17T12:09:37.870Z,29.96
2023-07-17T12:12:10.231Z,29.67
2023-07-17T12:14:42.142Z,29.79
2023-07-17T12:17:14.232Z,29.53
2023-07-17T12:19:46.029Z,29.38
2023-07-17T12:24:52.800Z,29.55
2023-07-17T12:27:26.292Z,29.31
2023-07-17T12:30:00.597Z,29.11
2023-07-17T12:32:32.407Z,29.28
2023-07-17T12:35:04.461Z,29.01
2023-07-17T12:37:37.000Z,29.18
2023-07-17T12:40:09.491Z,29.01
2023-07-17T12:42:41.504Z,29.03
2023-07-17T12:45:13.432Z,28.90
2023-07-17T12:47:46.090Z,28.89
2023-07-17T12:50:18.118Z,28.75
2023-07-17T12:52:49.914Z,28.46
2023-07-17T12:55:23.205Z,28.76
2023-07-17T12:57:55.701Z,28.71
2023-07-17T13:00:27.812Z,28.70
2023-07-17T13:02:59.836Z,28.59
2023-07-17T13:05:31.730Z,28.50
2023-07-17T13:08:04.517Z,28.44
2023-07-17T13:10:36.683Z,28.44
2023-07-17T13:13:08.457Z,28.47
2023-07-17T13:15:40.285Z,28.26
2023-07-17T13:18:12.181Z,28.25
2023-07-17T13:20:44.326Z,28.39
2023-07-17T13:23:16.262Z,28.44
2023-07-17T13:25:48.198Z,28.37
2023-07-17T13:28:20.093Z,28.59
2023-07-17T13:31:07.411Z,28.46
2023-07-17T13:33:41.713Z,28.36
2023-07-17T13:36:13.575Z,28.43
2023-07-17T13:38:45.514Z,28.34
2023-07-17T13:41:49.388Z,28.29
2023-07-17T13:44:22.053Z,28.25
2023-07-17T13:46:53.982Z,27.97
2023-07-17T13:49:25.815Z,27.93
2023-07-17T13:51:57.660Z,27.78
2023-07-17T13:54:29.625Z,27.63
2023-07-17T13:57:03.212Z,27.66
2023-07-17T13:59:35.255Z,27.59
2023-07-17T14:02:07.369Z,27.44
2023-07-17T14:04:41.005Z,27.68
2023-07-17T14:07:13.065Z,27.74
2023-07-17T14:09:44.863Z,27.61
2023-07-17T14:12:16.720Z,27.91
2023-07-17T14:14:48.491Z,27.72
2023-07-17T14:17:20.476Z,27.91
2023-07-17T14:19:52.290Z,28.12
2023-07-17T14:22:24.313Z,27.97
2023-07-17T14:24:56.463Z,27.86
2023-07-17T14:27:28.618Z,27.68
2023-07-17T14:30:00.417Z,28.02
2023-07-17T14:32:32.289Z,27.82
2023-07-17T14:35:04.303Z,27.78
2023-07-17T14:37:36.293Z,27.74
2023-07-17T14:40:08.760Z,27.69
2023-07-17T14:42:40.583Z,27.67
2023-07-17T14:45:12.471Z,27.41
2023-07-17T14:47:44.454Z,27.45
2023-07-17T14:50:21.288Z,27.36
2023-07-17T14:52:53.295Z,27.41
2023-07-17T14:55:25.619Z,27.33
2023-07-17T14:57:57.432Z,27.26
2023-07-17T15:00:29.272Z,26.95
2023-07-17T15:03:01.254Z,27.04
2023-07-17T15:05:33.101Z,27.02
2023-07-17T15:08:05.073Z,27.16
2023-07-17T15:10:37.046Z,27.09
2023-07-17T15:13:09.119Z,27.00
2023-07-17T15:15:41.003Z,26.99
2023-07-17T15:18:12.811Z,26.92
2023-07-17T15:20:44.596Z,26.99
2023-07-17T15:23:16.614Z,26.80
2023-07-17T15:25:48.879Z,26.70
2023-07-17T15:28:20.783Z,26.78
2023-07-17T15:30:52.584Z,26.77
2023-07-17T15:33:26.856Z,26.83
2023-07-17T15:35:58.745Z,26.82
2023-07-17T15:38:30.500Z,27.08
2023-07-17T15:41:02.311Z,26.84
2023-07-17T15:43:34.645Z,27.05
2023-07-17T15:46:06.532Z,27.08
2023-07-17T15:48:38.296Z,27.11
2023-07-17T15:51:10.148Z,27.08
2023-07-17T15:53:42.069Z,27.00
2023-07-17T15:56:13.916Z,27.12
2023-07-17T15:58:45.771Z,26.89
2023-07-17T16:01:18.766Z,27.10
2023-07-17T16:03:50.679Z,26.74
2023-07-17T16:06:22.485Z,26.99
2023-07-17T16:08:54.261Z,27.32
2023-07-17T16:11:26.089Z,27.25
2023-07-17T16:13:57.900Z,27.38
2023-07-17T16:16:29.769Z,27.52
2023-07-17T16:19:01.564Z,27.44
2023-07-17T16:21:33.474Z,27.46
2023-07-17T16:24:05.544Z,27.45
2023-07-17T16:26:37.352Z,27.33
2023-07-17T16:29:09.129Z,27.66
2023-07-17T16:31:41.415Z,27.67
2023-07-17T16:34:13.241Z,27.75
2023-07-17T16:36:46.255Z,27.73
2023-07-17T16:39:18.579Z,27.45
2023-07-17T16:41:50.419Z,26.90
2023-07-17T16:44:22.330Z,27.02
2023-07-17T16:46:54.190Z,26.97
2023-07-17T16:49:26.002Z,26.75
2023-07-17T16:51:57.812Z,26.63
2023-07-17T16:54:29.728Z,26.60
2023-07-17T16:57:01.671Z,26.23
2023-07-17T16:59:33.477Z,26.44
2023-07-17T17:02:05.855Z,26.10
2023-07-17T17:04:37.709Z,26.19
2023-07-17T17:07:09.564Z,26.00
2023-07-17T17:09:41.395Z,25.90
2023-07-17T17:12:13.331Z,25.80
2023-07-17T17:14:45.307Z,25.77
2023-07-17T17:17:17.437Z,25.71
2023-07-17T17:19:49.298Z,25.57
2023-07-17T17:22:21.325Z,25.65
2023-07-17T17:24:53.158Z,25.73
2023-07-17T17:27:26.847Z,25.25
2023-07-17T17:30:01.221Z,25.28
2023-07-17T17:32:33.586Z,25.15
2023-07-17T17:35:06.635Z,25.19
2023-07-17T17:37:38.493Z,24.77
2023-07-17T17:40:10.512Z,24.82
2023-07-17T17:42:42.433Z,24.80
2023-07-17T17:45:15.622Z,24.50
2023-07-17T17:47:47.682Z,24.77
2023-07-17T17:50:19.531Z,24.60
2023-07-17T17:52:52.014Z,24.35
2023-07-17T17:55:23.829Z,24.68
2023-07-17T17:57:55.627Z,24.64
2023-07-17T18:00:27.413Z,24.47
2023-07-17T18:02:59.546Z,24.72
2023-07-17T18:05:31.565Z,24.40
2023-07-17T18:08:03.749Z,24.43
2023-07-17T18:10:36.314Z,24.38
2023-07-17T18:13:08.151Z,24.40
2023-07-17T18:15:40.262Z,24.21
2023-07-17T18:18:14.317Z,24.06
2023-07-17T18:20:46.891Z,24.04
2023-07-17T18:23:18.860Z,24.04
2023-07-17T18:25:50.657Z,24.23
2023-07-17T18:28:22.460Z,24.10
2023-07-17T18:30:54.315Z,24.14
2023-07-17T18:33:26.971Z,23.91
2023-07-17T18:35:59.143Z,24.01
2023-07-17T18:38:30.916Z,24.12
2023-07-17T18:41:03.652Z,24.07
2023-07-17T18:43:35.453Z,23.92
2023-07-17T18:46:07.325Z,24.10
2023-07-17T18:48:39.288Z,23.68
2023-07-17T18:51:11.397Z,23.76
2023-07-17T18:53:43.225Z,23.74
2023-07-17T18:56:15.237Z,23.62
2023-07-17T18:58:47.029Z,23.77
2023-07-17T19:01:19.189Z,23.80
2023-07-17T19:03:52.418Z,23.74
2023-07-17T19:06:24.270Z,23.60
2023-07-17T19:08:56.801Z,23.69
2023-07-17T19:11:28.596Z,23.50
2023-07-17T19:14:00.381Z,23.54
2023-07-17T19:16:32.307Z,23.39
2023-07-17T19:19:04.342Z,23.49
2023-07-17T19:21:37.103Z,23.53
2023-07-17T19:24:08.912Z,23.34
2023-07-17T19:26:40.881Z,23.42
2023-07-17T19:29:12.686Z,23.45
2023-07-17T19:31:44.594Z,23.35
2023-07-17T19:34:19.374Z,23.37
2023-07-17T19:36:51.240Z,23.24
2023-07-17T19:39:23.692Z,23.35
2023-07-17T19:41:55.496Z,23.23
2023-07-17T19:44:27.269Z,23.33
2023-07-17T19:47:00.783Z,23.37
2023-07-17T19:49:33.611Z,23.26
2023-07-17T19:52:06.167Z,23.18
2023-07-17T19:54:37.962Z,23.26
2023-07-17T19:57:09.751Z,22.87
2023-07-17T19:59:41.508Z,23.17
2023-07-17T20:02:13.292Z,23.16
2023-07-17T20:04:45.142Z,23.12
2023-07-17T20:07:16.996Z,22.98
2023-07-17T20:09:49.362Z,22.96
2023-07-17T20:12:21.714Z,22.76
2023-07-17T20:14:53.471Z,22.81
2023-07-17T20:17:26.578Z,23.07
2023-07-17T20:19:58.398Z,22.99
2023-07-17T20:22:30.245Z,22.97
2023-07-17T20:25:02.047Z,23.09
2023-07-17T20:27:39.759Z,22.98
2023-07-17T20:30:13.894Z,22.92
2023-07-17T20:32:45.847Z,22.97
2023-07-17T20:35:27.323Z,22.90
2023-07-17T20:38:00.645Z,22.97
2023-07-17T20:40:33.685Z,22.69
2023-07-17T20:43:05.527Z,22.76
2023-07-17T20:45:49.714Z,22.70
2023-07-17T20:48:22.135Z,22.72
2023-07-17T20:51:10.711Z,22.64
2023-07-17T20:53:43.317Z,22.78
2023-07-17T20:56:15.760Z,22.70
2023-07-17T20:58:47.631Z,22.56
2023-07-17T21:01:24.690Z,22.75
2023-07-17T21:03:58.756Z,22.75
2023-07-17T21:06:31.063Z,22.70
2023-07-17T21:09:03.000Z,22.74
2023-07-17T21:11:34.775Z,22.47
2023-07-17T21:14:06.607Z,22.52
2023-07-17T21:16:38.415Z,22.49
2023-07-17T21:19:10.173Z,22.50
2023-07-17T21:21:42.179Z,22.37
2023-07-17T21:24:14.026Z,22.41
2023-07-17T21:26:45.817Z,22.42
2023-07-17T21:29:17.586Z,22.25
2023-07-17T21:31:49.369Z,22.29
2023-07-17T21:34:21.157Z,22.10
2023-07-17T21:36:52.911Z,22.31
2023-07-17T21:39:25.338Z,22.33
2023-07-17T21:41:57.204Z,22.25
2023-07-17T21:44:29.176Z,22.00
2023-07-17T21:47:01.036Z,22.08
2023-07-17T21:49:32.897Z,22.22
2023-07-17T21:52:05.003Z,22.03
2023-07-17T21:54:36.813Z,22.09
2023-07-17T21:57:08.606Z,21.89
2023-07-17T21:59:43.357Z,22.10
2023-07-17T22:02:15.151Z,21.92
2023-07-17T22:04:47.275Z,21.68
2023-07-17T22:07:19.041Z,22.05
2023-07-17T22:09:52.211Z,22.03
2023-07-17T22:12:23.975Z,22.01
2023-07-17T22:14:55.978Z,21.91
2023-07-17T22:17:27.866Z,21.95
2023-07-17T22:20:01.240Z,21.68
2023-07-17T22:22:33.214Z,21.40
2023-07-17T22:25:05.443Z,21.37
2023-07-17T22:27:37.237Z,21.31
2023-07-17T22:30:09.791Z,21.42
2023-07-17T22:32:42.075Z,21.28
2023-07-17T22:35:13.905Z,21.41
2023-07-17T22:37:45.675Z,21.41
2023-07-17T22:40:17.485Z,21.27
2023-07-17T22:42:50.210Z,21.29
2023-07-17T22:45:22.035Z,21.12
2023-07-17T22:47:56.185Z,20.77
2023-07-17T22:50:28.050Z,21.04
2023-07-17T22:52:59.969Z,21.12
2023-07-17T22:55:32.366Z,20.90
2023-07-17T22:58:04.169Z,20.89
2023-07-17T23:00:35.986Z,20.84
2023-07-17T23:03:07.940Z,20.74
2023-07-17T23:05:39.911Z,20.64
2023-07-17T23:08:11.741Z,20.61
2023-07-17T23:10:43.508Z,20.61
2023-07-17T23:13:16.105Z,20.65
2023-07-17T23:15:48.032Z,20.54
2023-07-17T23:18:20.923Z,20.44
2023-07-17T23:20:52.835Z,20.49
2023-07-17T23:23:24.737Z,20.32
2023-07-17T23:25:56.526Z,20.39
2023-07-17T23:28:28.323Z,20.28
2023-07-17T23:31:00.093Z,20.30
2023-07-17T23:33:31.933Z,20.07
2023-07-17T23:36:04.071Z,20.17
2023-07-17T23:38:36.834Z,20.22
2023-07-17T23:41:09.109Z,20.12
2023-07-17T23:43:40.941Z,20.15
2023-07-17T23:46:12.784Z,20.06
2023-07-17T23:48:45.887Z,19.95
2023-07-17T23:51:19.724Z,20.07
2023-07-17T23:53:51.723Z,19.95
2023-07-17T23:56:23.551Z,20.05
2023-07-17T23:58:55.330Z,19.88
